Time;durP1;ratioP1;P1;durP2;ratioP2;P2;SDS_P1;SDS_P2;PMS_P1;PMS_P2;Temp;Humidity;BMP_temperature;BMP_pressure;BME280_temperature;BME280_humidity;BME280_pressure;Samples;Min_cycle;Max_cycle;Signal;HPM_P1;HPM_P2
2022/08/02 00:01:39;;;;;;;;;4.67;4.00;;;;;23.43;53.27;101406.13;4983030;28;45465;-67
2022/08/02 00:04:05;;;;;;;;;4.00;3.00;;;;;23.43;52.78;101406.13;4997174;28;48340;-67
2022/08/02 00:06:30;;;;;;;;;5.67;4.00;;;;;23.41;52.74;101400.06;4977601;28;45612;-63
2022/08/02 00:08:56;;;;;;;;;3.00;3.00;;;;;23.35;52.69;101390.88;5006959;28;45560;-63
2022/08/02 00:11:21;;;;;;;;;2.00;1.00;;;;;23.40;52.69;101403.81;4980288;28;45571;-64
2022/08/02 00:13:47;;;;;;;;;5.00;3.67;;;;;23.21;52.69;101377.56;4986367;28;46424;-64
2022/08/02 00:16:12;;;;;;;;;2.00;2.00;;;;;23.32;52.66;101404.88;4983202;28;45350;-63
2022/08/02 00:18:38;;;;;;;;;10.67;9.67;;;;;23.28;53.15;101408.25;4985106;28;45404;-62
2022/08/02 00:21:03;;;;;;;;;5.67;3.67;;;;;23.33;52.86;101409.25;4989624;28;45510;-63
2022/08/02 00:23:29;;;;;;;;;4.00;2.33;;;;;23.38;52.26;101406.75;4994227;28;48367;-62
2022/08/02 00:25:54;;;;;;;;;4.00;3.00;;;;;22.82;52.83;101303.34;4994768;28;45452;-64
2022/08/02 00:28:19;;;;;;;;;3.67;3.67;;;;;23.35;52.87;101388.19;4994207;28;45405;-64
2022/08/02 00:30:45;;;;;;;;;3.33;2.67;;;;;23.36;52.50;101392.56;4993378;28;45483;-62
2022/08/02 00:33:10;;;;;;;;;2.33;2.33;;;;;23.35;52.49;101390.06;4986015;28;47695;-64
2022/08/02 00:35:36;;;;;;;;;4.33;4.33;;;;;23.32;52.91;101380.47;4980847;28;46240;-63
2022/08/02 00:38:02;;;;;;;;;4.00;3.00;;;;;23.37;52.63;101391.50;4992457;28;45486;-64
2022/08/02 00:40:28;;;;;;;;;2.00;2.00;;;;;23.22;52.71;101377.34;4978489;28;45616;-64
2022/08/02 00:43:07;;;;;;;;;3.67;3.33;;;;;23.18;52.60;101377.97;4993461;28;45870;-63
2022/08/02 00:45:34;;;;;;;;;3.33;3.33;;;;;22.91;52.94;101367.19;4987579;28;45357;-63
2022/08/02 00:48:00;;;;;;;;;4.00;4.00;;;;;22.97;53.37;101392.63;4992268;28;45361;-62
2022/08/02 00:50:26;;;;;;;;;5.00;4.00;;;;;23.03;53.35;101410.78;4995481;28;45678;-63
2022/08/02 00:52:51;;;;;;;;;4.00;4.00;;;;;22.96;52.97;101396.38;5008267;28;48532;-63
2022/08/02 00:55:17;;;;;;;;;5.33;5.33;;;;;22.88;52.89;101377.63;5014667;28;45638;-63
2022/08/02 00:57:42;;;;;;;;;4.00;3.00;;;;;22.88;53.38;101383.03;5012649;28;46426;-63
2022/08/02 01:00:08;;;;;;;;;4.33;4.33;;;;;22.96;52.87;101401.78;5010078;28;45658;-65
2022/08/02 01:02:34;;;;;;;;;5.33;3.33;;;;;22.85;52.83;101388.88;5006291;28;46335;-65
2022/08/02 01:04:59;;;;;;;;;6.67;6.00;;;;;22.92;52.76;101395.13;5006408;28;46408;-64
2022/08/02 01:07:26;;;;;;;;;6.00;5.00;;;;;22.98;53.24;101410.56;5000353;28;45239;-64
2022/08/02 01:09:52;;;;;;;;;4.00;4.00;;;;;22.47;52.93;101321.72;5007945;28;45979;-62
2022/08/02 01:12:17;;;;;;;;;3.33;3.33;;;;;22.95;52.98;101397.41;4996060;28;45747;-63
2022/08/02 01:14:46;;;;;;;;;3.33;3.33;;;;;23.01;52.60;101407.41;5004917;28;45447;-63
2022/08/02 01:17:25;;;;;;;;;3.33;3.33;;;;;22.90;52.64;101389.91;4999186;28;45510;-62
2022/08/02 01:20:13;;;;;;;;;2.00;2.00;;;;;22.96;52.78;101405.34;5000709;28;45268;-63
2022/08/02 01:23:01;;;;;;;;;2.00;2.00;;;;;22.87;52.82;101411.19;5011819;28;45687;-62
2022/08/02 01:25:56;;;;;;;;;3.00;3.00;;;;;22.78;53.43;101416.78;4987990;28;45381;-64
2022/08/02 01:28:31;;;;;;;;;6.00;4.00;;;;;22.69;54.03;101415.31;4996901;28;45247;-64
2022/08/02 01:31:19;;;;;;;;;3.33;3.00;;;;;22.66;53.87;101412.19;5012980;28;46577;-63
2022/08/02 01:33:55;;;;;;;;;4.00;3.00;;;;;22.70;53.56;101408.03;5002841;28;46590;-64
2022/08/02 01:36:26;;;;;;;;;3.33;3.33;;;;;22.65;53.62;101395.09;4997218;28;45546;-63
2022/08/02 01:38:53;;;;;;;;;2.33;2.00;;;;;22.84;53.27;101419.75;5013655;28;45309;-63
2022/08/02 01:41:22;;;;;;;;;5.00;5.00;;;;;22.81;53.44;101404.69;5013179;28;45494;-65
2022/08/02 01:43:55;;;;;;;;;4.33;3.33;;;;;22.85;53.40;101421.41;5018116;28;45404;-63
2022/08/02 01:46:23;;;;;;;;;2.00;2.00;;;;;22.34;53.29;101329.81;5004496;28;45595;-64
2022/08/02 01:48:51;;;;;;;;;2.33;2.33;;;;;22.88;52.81;101415.56;4999918;28;45534;-63
2022/08/02 01:52:20;;;;;;;;;2.00;2.00;;;;;22.73;52.72;101408.44;4999616;28;45560;-63
2022/08/02 01:54:08;;;;;;;;;6.00;5.00;;;;;22.50;53.72;101382.78;4998574;28;45238;-62
2022/08/02 01:56:35;;;;;;;;;2.00;2.00;;;;;22.59;53.76;101395.91;5012419;28;45409;-65
2022/08/02 01:59:04;;;;;;;;;3.00;3.00;;;;;22.67;53.53;101412.00;5013462;28;45334;-62
2022/08/02 02:01:33;;;;;;;;;4.67;3.00;;;;;22.69;53.83;101418.03;5007044;28;45250;-68
2022/08/02 02:04:00;;;;;;;;;3.67;3.00;;;;;22.45;54.30;101381.53;5004462;28;45641;-63
2022/08/02 02:06:27;;;;;;;;;5.00;3.33;;;;;21.63;54.31;101253.66;5012588;28;45611;-63
2022/08/02 02:08:53;;;;;;;;;3.00;3.00;;;;;22.50;54.02;101405.28;5008635;28;45318;-63
2022/08/02 02:11:20;;;;;;;;;3.67;2.67;;;;;22.51;53.92;101392.59;5006692;28;45291;-63
2022/08/02 02:13:47;;;;;;;;;4.00;4.00;;;;;22.55;54.10;101401.97;4997408;28;45569;-64
2022/08/02 02:16:14;;;;;;;;;1.00;1.00;;;;;22.43;54.23;101401.75;4998942;28;45475;-63
2022/08/02 02:18:42;;;;;;;;;4.00;4.00;;;;;22.38;54.54;101404.22;5016737;28;45506;-63
2022/08/02 02:21:08;;;;;;;;;4.00;2.33;;;;;22.36;54.29;101400.88;5016265;28;45430;-63
2022/08/02 02:23:34;;;;;;;;;5.00;4.00;;;;;22.37;54.32;101392.56;5017971;28;45783;-64
2022/08/02 02:26:02;;;;;;;;;5.00;5.00;;;;;22.33;53.98;101387.75;5015376;28;45471;-64
2022/08/02 02:28:30;;;;;;;;;4.00;4.00;;;;;22.28;53.96;101365.88;5003604;28;46208;-63
2022/08/02 02:31:18;;;;;;;;;4.00;3.00;;;;;22.42;54.10;101390.06;5018110;28;45401;-64
2022/08/02 02:33:49;;;;;;;;;3.33;3.33;;;;;22.46;54.14;101390.50;5004933;28;46362;-64
2022/08/02 02:36:17;;;;;;;;;3.00;1.00;;;;;22.26;53.92;101376.09;4998170;28;45516;-65
2022/08/02 02:38:45;;;;;;;;;4.00;4.00;;;;;22.39;53.88;101392.34;4999064;28;45365;-63
2022/08/02 02:41:12;;;;;;;;;3.00;3.00;;;;;22.31;53.72;101370.88;5008038;28;45484;-64
2022/08/02 02:43:39;;;;;;;;;2.33;2.33;;;;;22.44;53.40;101398.00;5004647;28;45576;-64
2022/08/02 02:46:07;;;;;;;;;4.00;3.33;;;;;22.43;53.87;101385.50;4991436;28;45598;-64
2022/08/02 02:48:35;;;;;;;;;4.00;4.00;;;;;22.43;53.43;101399.03;4999237;28;45417;-63
2022/08/02 02:51:03;;;;;;;;;3.00;3.00;;;;;21.98;53.34;101311.19;4998053;28;45520;-63
2022/08/02 02:53:30;;;;;;;;;3.00;3.00;;;;;22.43;53.45;101386.34;5009752;28;45607;-70
2022/08/02 02:55:56;;;;;;;;;1.00;1.00;;;;;22.40;53.62;101397.56;5005164;28;45489;-63
2022/08/02 02:58:23;;;;;;;;;4.33;4.33;;;;;22.34;53.74;101375.88;5020270;28;45334;-63
2022/08/02 03:03:34;;;;;;;;;3.67;3.67;;;;;22.29;53.60;101383.78;5000994;28;45836;-63
2022/08/02 03:05:59;;;;;;;;;2.00;2.00;;;;;22.39;53.35;101385.03;5009127;28;45382;-63
2022/08/02 03:08:24;;;;;;;;;2.33;1.00;;;;;22.33;53.39;101393.19;4980153;28;45350;-67
2022/08/02 03:10:51;;;;;;;;;5.33;3.33;;;;;22.29;53.81;101384.63;5013713;28;45444;-62
2022/08/02 03:13:17;;;;;;;;;3.33;3.33;;;;;21.85;53.63;101314.72;5015994;28;47521;-63
2022/08/02 03:15:45;;;;;;;;;4.67;3.67;;;;;22.14;53.48;101365.84;5012592;28;45441;-63
2022/08/02 03:18:29;;;;;;;;;4.00;4.00;;;;;22.09;53.73;101362.91;5003853;28;45532;-64
2022/08/02 03:21:01;;;;;;;;;3.00;3.00;;;;;22.15;53.66;101378.34;5005309;28;45573;-64
2022/08/02 03:23:27;;;;;;;;;3.00;3.00;;;;;22.05;53.60;101361.66;4997092;28;46831;-63
2022/08/02 03:25:53;;;;;;;;;2.67;2.67;;;;;22.19;53.67;101377.94;5013566;28;46887;-63
2022/08/02 03:28:18;;;;;;;;;4.67;4.00;;;;;22.20;53.78;101385.00;5004100;28;45877;-63
2022/08/02 03:30:43;;;;;;;;;2.00;2.00;;;;;22.18;53.73;101377.09;5008153;28;45536;-63
2022/08/02 03:33:09;;;;;;;;;5.00;4.00;;;;;21.63;53.59;101275.31;5005429;28;46046;-62
2022/08/02 03:35:36;;;;;;;;;4.33;3.33;;;;;22.25;53.06;101382.53;5002119;28;45535;-64
2022/08/02 03:38:03;;;;;;;;;3.00;3.00;;;;;22.27;52.98;101381.28;5010292;28;45528;-64
2022/08/02 03:40:30;;;;;;;;;2.00;2.00;;;;;22.26;52.75;101385.03;4998274;28;45690;-63
2022/08/02 03:42:56;;;;;;;;;3.33;3.33;;;;;22.26;52.70;101373.38;5001820;28;47002;-62
2022/08/02 03:45:23;;;;;;;;;2.67;2.00;;;;;22.03;52.71;101330.38;5013614;28;45336;-63
2022/08/02 03:47:49;;;;;;;;;3.00;3.00;;;;;22.28;52.54;101374.00;5013659;28;45460;-62
2022/08/02 03:50:15;;;;;;;;;2.00;1.00;;;;;22.32;52.23;101377.97;5010400;28;45517;-62
2022/08/02 03:52:41;;;;;;;;;2.33;2.33;;;;;22.15;52.60;101345.84;5005927;28;46349;-62
2022/08/02 03:55:08;;;;;;;;;3.00;3.00;;;;;22.27;52.13;101359.63;5011406;28;45483;-62
2022/08/02 03:57:37;;;;;;;;;2.00;2.00;;;;;21.94;53.20;101321.59;5008364;28;45532;-67
2022/08/02 04:00:03;;;;;;;;;3.33;3.33;;;;;22.26;53.25;101363.38;4997377;28;45649;-67
2022/08/02 04:02:29;;;;;;;;;3.00;3.00;;;;;22.22;53.88;101372.09;5004046;28;47021;-64
2022/08/02 04:04:54;;;;;;;;;4.67;2.00;;;;;21.71;53.71;101281.34;4997337;28;45564;-64
2022/08/02 04:07:19;;;;;;;;;3.33;3.33;;;;;22.22;53.56;101372.09;5009968;28;45433;-63
2022/08/02 04:09:45;;;;;;;;;5.00;3.00;;;;;22.20;54.06;101368.75;5015829;28;45361;-63
2022/08/02 04:12:10;;;;;;;;;4.33;4.33;;;;;21.67;54.21;101288.22;5010676;28;45983;-63
2022/08/02 04:14:35;;;;;;;;;3.00;3.00;;;;;22.09;54.36;101368.34;5013861;28;45381;-63
2022/08/02 04:17:06;;;;;;;;;3.00;3.00;;;;;22.11;54.17;101366.25;5004458;28;45530;-63
2022/08/02 04:19:38;;;;;;;;;1.00;1.00;;;;;22.10;53.88;101361.88;5011776;28;45548;-63
2022/08/02 04:22:09;;;;;;;;;4.33;3.33;;;;;22.13;53.62;101363.34;4999251;28;46421;-64
2022/08/02 04:24:40;;;;;;;;;5.33;4.33;;;;;22.17;53.54;101370.84;5000214;28;46705;-63
2022/08/02 04:27:08;;;;;;;;;4.00;4.00;;;;;22.07;53.36;101346.03;5003829;28;45519;-63
2022/08/02 04:29:35;;;;;;;;;3.00;3.00;;;;;22.17;53.48;101370.84;5007343;28;45477;-63
2022/08/02 04:32:03;;;;;;;;;2.00;2.00;;;;;22.21;53.09;101360.44;4998637;28;46371;-63
2022/08/02 04:34:29;;;;;;;;;3.00;2.33;;;;;21.87;53.07;101309.94;5009703;28;45444;-64
2022/08/02 04:36:56;;;;;;;;;2.00;2.00;;;;;22.23;53.08;101368.38;5003005;28;45346;-63
2022/08/02 04:39:21;;;;;;;;;4.33;3.67;;;;;22.27;53.11;101377.75;5003320;28;45498;-64
2022/08/02 04:41:46;;;;;;;;;5.00;4.00;;;;;22.27;53.17;101377.75;5010686;28;46402;-63
2022/08/02 04:44:12;;;;;;;;;6.67;6.00;;;;;22.26;53.27;101378.78;5013765;28;45519;-63
2022/08/02 04:46:40;;;;;;;;;4.00;4.00;;;;;22.25;53.35;101372.53;5001389;28;45579;-63
2022/08/02 04:49:05;;;;;;;;;3.00;3.00;;;;;22.21;53.70;101383.97;4996422;28;45279;-64
2022/08/02 04:51:35;;;;;;;;;4.00;4.00;;;;;22.22;53.79;101377.50;5002997;28;46528;-64
2022/08/02 04:54:00;;;;;;;;;4.00;3.00;;;;;22.16;54.04;101379.19;5011481;28;45251;-63
2022/08/02 04:56:25;;;;;;;;;5.67;4.67;;;;;22.13;53.71;101380.41;5013937;28;45174;-63
2022/08/02 04:58:51;;;;;;;;;4.00;4.00;;;;;22.07;53.87;101356.03;4996870;28;45588;-63
2022/08/02 05:01:16;;;;;;;;;2.00;2.00;;;;;22.11;53.55;101354.59;5006694;28;45894;-63
2022/08/02 05:03:41;;;;;;;;;4.00;4.00;;;;;22.16;54.03;101363.75;4999464;28;45229;-62
2022/08/02 05:06:07;;;;;;;;;3.67;3.00;;;;;22.16;54.27;101371.88;4997089;28;45188;-63
2022/08/02 05:08:32;;;;;;;;;1.00;1.00;;;;;21.69;53.94;101302.38;5016066;28;45511;-63
2022/08/02 05:10:58;;;;;;;;;3.67;3.67;;;;;22.13;54.04;101364.16;5015093;28;46474;-64
2022/08/02 05:13:23;;;;;;;;;6.67;5.00;;;;;22.04;54.12;101353.72;5004563;28;45231;-63
2022/08/02 05:15:51;;;;;;;;;5.00;5.00;;;;;22.12;54.21;101367.91;4996164;28;45532;-63
2022/08/02 05:18:16;;;;;;;;;4.33;4.00;;;;;22.15;53.90;101383.75;5002509;28;45429;-63
2022/08/02 05:20:42;;;;;;;;;3.33;2.33;;;;;22.16;53.58;101371.88;5007657;28;46701;-64
2022/08/02 05:23:07;;;;;;;;;4.00;4.00;;;;;22.21;53.64;101375.84;5017089;28;45246;-63
2022/08/02 05:25:33;;;;;;;;;4.00;4.00;;;;;22.26;53.29;101373.38;5010154;28;45383;-63
2022/08/02 05:27:58;;;;;;;;;6.00;5.00;;;;;22.31;53.69;101376.28;5008463;28;45604;-63
2022/08/02 05:30:24;;;;;;;;;5.33;5.33;;;;;22.27;53.45;101365.03;5019269;28;46594;-62
2022/08/02 05:32:51;;;;;;;;;4.00;4.00;;;;;22.31;53.11;101365.47;5007579;28;45401;-63
2022/08/02 05:35:19;;;;;;;;;6.00;4.33;;;;;22.37;53.18;101378.16;4999856;28;45196;-70
2022/08/02 05:37:45;;;;;;;;;4.00;4.00;;;;;22.32;53.13;101375.25;5010372;28;45535;-64
2022/08/02 05:40:10;;;;;;;;;3.67;3.67;;;;;22.46;52.91;101396.75;5006478;28;47395;-63
2022/08/02 05:42:36;;;;;;;;;5.00;5.00;;;;;22.28;53.17;101374.00;5017831;28;45572;-63
2022/08/02 05:45:02;;;;;;;;;4.33;3.00;;;;;22.48;52.75;101393.84;5014295;28;45318;-63
2022/08/02 05:47:27;;;;;;;;;6.00;6.00;;;;;20.99;53.00;101143.13;5013108;28;45436;-63
2022/08/02 05:49:53;;;;;;;;;3.33;2.00;;;;;22.57;52.84;101392.56;4998897;28;45449;-63
2022/08/02 05:52:23;;;;;;;;;5.67;5.67;;;;;22.59;52.73;101385.06;5011071;28;45496;-64
2022/08/02 05:54:53;;;;;;;;;6.67;6.00;;;;;22.62;52.88;101384.66;5018546;28;45396;-63
2022/08/02 05:57:40;;;;;;;;;7.00;6.33;;;;;22.64;52.84;101382.59;4997633;28;45548;-64
2022/08/02 06:00:12;;;;;;;;;6.00;5.00;;;;;22.61;52.24;101372.16;5012617;28;47801;-63
2022/08/02 06:02:56;;;;;;;;;3.00;2.00;;;;;22.73;51.91;101377.78;5014051;28;46207;-63
2022/08/02 06:05:24;;;;;;;;;3.00;3.00;;;;;22.72;51.87;101373.41;5018428;28;45408;-62
2022/08/02 06:07:50;;;;;;;;;4.00;4.00;;;;;21.86;51.65;101252.25;5010674;28;45496;-70
2022/08/02 06:10:20;;;;;;;;;5.33;5.00;;;;;22.08;51.89;101293.56;5003519;28;45665;-63
2022/08/02 06:13:05;;;;;;;;;3.33;3.33;;;;;22.59;51.88;101398.63;5010892;28;45440;-63
2022/08/02 06:15:32;;;;;;;;;4.00;4.00;;;;;22.69;51.72;101385.50;5003432;28;45609;-63
2022/08/02 06:17:58;;;;;;;;;3.33;3.33;;;;;23.22;51.73;101371.09;4992001;28;45669;-63
2022/08/02 06:20:26;;;;;;;;;5.00;5.00;;;;;24.13;49.32;101379.13;5009532;28;47403;-62
2022/08/02 06:22:53;;;;;;;;;4.33;4.33;;;;;25.01;47.45;101377.25;5015615;28;45585;-68
2022/08/02 06:25:21;;;;;;;;;6.67;5.00;;;;;25.90;44.89;101377.75;5017371;28;45279;-63
2022/08/02 06:27:48;;;;;;;;;5.00;5.00;;;;;26.48;43.47;101347.16;5009892;28;45729;-63
2022/08/02 06:30:14;;;;;;;;;2.67;2.67;;;;;27.31;41.95;101365.22;5000721;28;45647;-73
2022/08/02 06:32:40;;;;;;;;;5.00;4.00;;;;;27.82;40.06;101315.22;5013417;28;46013;-64
2022/08/02 06:35:06;;;;;;;;;5.00;5.00;;;;;28.96;38.68;101372.47;4998510;28;45481;-64
2022/08/02 06:37:55;;;;;;;;;4.33;4.33;;;;;29.65;36.21;101379.22;5002381;28;45438;-69
2022/08/02 06:40:29;;;;;;;;;5.00;5.00;;;;;30.18;35.45;101385.03;5017107;28;46646;-64
2022/08/02 06:43:15;;;;;;;;;5.00;3.67;;;;;30.77;34.29;101379.53;5011562;28;45591;-65
2022/08/02 06:45:40;;;;;;;;;3.33;3.33;;;;;31.30;33.23;101362.06;5017844;28;45485;-64
2022/08/02 06:48:19;;;;;;;;;6.33;5.00;;;;;31.80;32.29;101376.31;5013261;28;45482;-65
2022/08/02 06:50:46;;;;;;;;;6.67;4.33;;;;;32.17;32.21;101393.44;5002450;28;45448;-63
2022/08/02 06:53:11;;;;;;;;;4.00;4.00;;;;;32.47;31.17;101402.88;5013343;28;45472;-64
2022/08/02 06:55:37;;;;;;;;;7.00;6.33;;;;;32.62;30.86;101395.44;5007795;28;45321;-64
2022/08/02 06:58:02;;;;;;;;;7.00;4.33;;;;;32.68;30.88;101390.78;5004305;28;45421;-65
2022/08/02 07:00:28;;;;;;;;;5.33;5.33;;;;;32.99;29.48;101361.28;5005831;28;45567;-64
2022/08/02 07:02:54;;;;;;;;;5.33;4.33;;;;;33.46;29.89;101385.72;5018001;28;45439;-64
2022/08/02 07:05:20;;;;;;;;;3.00;3.00;;;;;33.95;29.34;101398.75;4995724;28;45540;-63
2022/08/02 07:07:45;;;;;;;;;5.00;5.00;;;;;34.52;28.12;101389.00;5009146;28;45724;-70
2022/08/02 07:10:12;;;;;;;;;5.00;5.00;;;;;34.60;27.42;101396.66;5001935;28;48815;-65
2022/08/02 07:12:37;;;;;;;;;4.00;4.00;;;;;34.87;26.62;101404.47;5013434;28;45845;-64
2022/08/02 07:15:05;;;;;;;;;4.00;4.00;;;;;34.94;27.38;101402.19;5013412;28;45807;-64
2022/08/02 07:17:32;;;;;;;;;4.00;4.00;;;;;35.29;26.39;101403.75;5014919;28;45254;-65
2022/08/02 07:20:01;;;;;;;;;5.67;5.67;;;;;35.51;27.06;101399.66;5017892;28;45307;-65
2022/08/02 07:22:27;;;;;;;;;3.00;3.00;;;;;35.85;26.19;101399.53;5018134;28;45557;-63
2022/08/02 07:24:55;;;;;;;;;4.67;4.00;;;;;35.89;25.90;101379.25;5017367;28;45620;-65
2022/08/02 07:27:24;;;;;;;;;5.00;5.00;;;;;36.08;25.82;101375.69;4993892;28;45566;-65
2022/08/02 07:29:50;;;;;;;;;5.67;4.67;;;;;35.81;25.42;101351.38;5002179;28;48275;-68
2022/08/02 07:32:17;;;;;;;;;5.33;4.33;;;;;36.05;25.24;101387.34;5015025;28;45513;-64
2022/08/02 07:34:43;;;;;;;;;3.33;3.33;;;;;36.53;24.61;101401.84;5010718;28;45651;-64
2022/08/02 07:37:09;;;;;;;;;6.33;6.33;;;;;36.92;24.29;101384.84;5001949;28;45466;-65
2022/08/02 07:39:34;;;;;;;;;6.67;4.00;;;;;37.46;23.50;101399.91;5013115;28;45526;-64
2022/08/02 07:42:00;;;;;;;;;3.00;3.00;;;;;37.92;23.23;101401.69;5013317;28;45407;-65
2022/08/02 07:44:25;;;;;;;;;3.67;3.67;;;;;38.49;22.65;101408.41;4990515;28;45634;-64
2022/08/02 07:46:51;;;;;;;;;3.00;3.00;;;;;38.53;21.78;101395.53;4994624;28;45513;-65
2022/08/02 07:49:19;;;;;;;;;9.00;7.33;;;;;38.91;22.12;101401.50;5012398;28;46578;-64
2022/08/02 07:51:45;;;;;;;;;12.00;11.00;;;;;39.30;22.11;101396.31;5010803;28;45484;-63
2022/08/02 07:54:10;;;;;;;;;5.00;5.00;;;;;39.69;21.44;101403.81;5025409;28;45579;-64
2022/08/02 07:56:36;;;;;;;;;4.00;4.00;;;;;39.82;21.21;101406.44;5010380;28;45501;-64
2022/08/02 07:59:02;;;;;;;;;7.00;6.00;;;;;40.00;20.83;101390.59;4991583;28;48614;-65
2022/08/02 08:01:27;;;;;;;;;4.33;4.33;;;;;39.94;20.50;101400.25;5004753;28;45273;-65
2022/08/02 08:03:53;;;;;;;;;5.67;4.33;;;;;39.57;20.99;101375.78;4996746;28;45339;-64
2022/08/02 08:06:18;;;;;;;;;8.00;6.33;;;;;39.28;21.18;101391.06;5000215;28;45751;-63
2022/08/02 08:08:43;;;;;;;;;4.00;4.00;;;;;39.13;20.65;101383.16;5017531;28;45364;-64
2022/08/02 08:11:09;;;;;;;;;5.00;5.00;;;;;38.67;21.38;101389.13;4998151;28;45856;-65
2022/08/02 08:13:34;;;;;;;;;6.67;5.00;;;;;38.86;21.86;101386.94;4995755;28;45750;-65
2022/08/02 08:16:01;;;;;;;;;7.67;5.00;;;;;39.11;21.63;101391.81;4998652;28;45511;-64
2022/08/02 08:18:26;;;;;;;;;4.67;4.67;;;;;39.40;21.85;101396.00;5012743;28;46004;-66
2022/08/02 08:20:51;;;;;;;;;6.00;5.00;;;;;39.60;20.56;101383.47;5003618;28;45540;-65
2022/08/02 08:23:17;;;;;;;;;4.67;4.67;;;;;39.91;20.85;101383.38;4997851;28;45351;-65
2022/08/02 08:25:42;;;;;;;;;5.67;5.67;;;;;39.75;20.50;101375.50;5017549;28;45270;-65
2022/08/02 08:28:08;;;;;;;;;5.00;5.00;;;;;39.67;21.70;101389.41;5016821;28;46348;-65
2022/08/02 08:30:33;;;;;;;;;8.00;6.67;;;;;39.85;20.85;101396.66;5011202;28;45866;-63
2022/08/02 08:32:59;;;;;;;;;5.33;5.33;;;;;40.01;20.93;101383.06;5016280;28;45581;-65
2022/08/02 08:35:24;;;;;;;;;5.00;5.00;;;;;40.21;20.78;101398.31;5017502;28;45491;-64
2022/08/02 08:37:50;;;;;;;;;4.67;4.67;;;;;40.31;19.84;101392.41;4999059;28;48338;-64
2022/08/02 08:40:15;;;;;;;;;7.00;5.00;;;;;40.51;20.09;101377.00;5017161;28;45554;-65
2022/08/02 08:42:41;;;;;;;;;5.67;5.67;;;;;40.73;19.81;101388.75;5012493;28;45321;-64
2022/08/02 08:45:07;;;;;;;;;6.00;6.00;;;;;40.66;20.21;101321.53;5001256;28;45464;-65
2022/08/02 08:47:38;;;;;;;;;6.00;6.00;;;;;41.35;19.61;101392.16;5008816;28;46155;-63
2022/08/02 08:50:07;;;;;;;;;7.00;6.33;;;;;41.48;19.38;101391.13;4998735;28;45398;-63
2022/08/02 08:52:47;;;;;;;;;7.33;6.33;;;;;41.70;19.16;101390.84;5004981;28;45593;-63
2022/08/02 08:55:14;;;;;;;;;7.33;7.33;;;;;41.91;18.71;101380.50;5005619;28;45465;-69
2022/08/02 08:57:41;;;;;;;;;7.67;7.67;;;;;42.15;18.66;101370.63;5002138;28;47011;-65
2022/08/02 09:00:15;;;;;;;;;5.33;5.33;;;;;42.25;18.29;101380.53;5014581;28;45464;-63
2022/08/02 09:02:42;;;;;;;;;8.00;8.00;;;;;42.19;18.31;101365.97;4988788;28;45431;-63
2022/08/02 09:05:13;;;;;;;;;9.00;6.33;;;;;41.75;18.86;101292.91;5001560;28;45465;-65
2022/08/02 09:07:41;;;;;;;;;5.33;5.33;;;;;41.17;18.33;101269.47;5007064;28;45638;-64
2022/08/02 09:10:34;;;;;;;;;5.33;5.33;;;;;41.79;18.67;101380.41;5007296;28;45547;-64
2022/08/02 09:13:09;;;;;;;;;6.00;5.33;;;;;41.96;18.29;101384.22;5012922;28;45426;-66
2022/08/02 09:15:36;;;;;;;;;6.00;5.00;;;;;41.96;18.27;101359.09;5005332;28;45473;-63
2022/08/02 09:18:04;;;;;;;;;7.33;5.67;;;;;41.79;18.06;101368.41;4997963;28;45492;-63
2022/08/02 09:20:29;;;;;;;;;7.67;5.00;;;;;41.89;18.54;101385.59;5002517;28;45636;-65
2022/08/02 09:23:09;;;;;;;;;4.00;4.00;;;;;42.38;18.16;101368.25;5014514;28;45649;-66
2022/08/02 09:25:35;;;;;;;;;6.67;6.67;;;;;43.34;17.84;101382.81;5013137;28;45361;-66
2022/08/02 09:28:03;;;;;;;;;7.00;7.00;;;;;44.46;16.28;101369.00;5016126;28;46573;-66
2022/08/02 09:30:28;;;;;;;;;4.67;4.67;;;;;45.43;15.46;101373.91;4998106;28;45434;-64
2022/08/02 09:32:54;;;;;;;;;5.33;5.33;;;;;46.38;14.51;101376.34;5016262;28;45417;-66
2022/08/02 09:35:37;;;;;;;;;7.33;6.33;;;;;46.92;13.92;101353.66;4996835;28;45611;-64
2022/08/02 09:38:13;;;;;;;;;6.67;5.33;;;;;47.66;13.46;101367.31;5008764;28;46680;-65
2022/08/02 09:40:43;;;;;;;;;6.33;6.33;;;;;47.73;13.14;101310.22;4988995;28;45465;-68
2022/08/02 09:43:09;;;;;;;;;4.67;3.33;;;;;48.34;12.83;101363.31;5008042;28;45560;-63
2022/08/02 09:45:36;;;;;;;;;5.67;5.67;;;;;48.90;12.67;101361.44;5011082;28;45671;-64
2022/08/02 09:48:06;;;;;;;;;6.67;6.00;;;;;49.54;12.12;101354.22;4997490;28;47407;-63
2022/08/02 09:50:32;;;;;;;;;6.67;6.67;;;;;49.73;11.96;101341.03;5015462;28;45523;-63
2022/08/02 09:52:58;;;;;;;;;3.67;3.67;;;;;49.62;11.88;101352.25;5015307;28;45432;-64
2022/08/02 09:55:25;;;;;;;;;5.00;5.00;;;;;49.45;12.54;101345.28;5016117;28;45497;-63
2022/08/02 09:57:51;;;;;;;;;7.67;4.67;;;;;49.58;11.68;101323.16;5015787;28;45905;-64
2022/08/02 10:00:17;;;;;;;;;4.00;4.00;;;;;49.58;11.76;101329.63;5015453;28;45469;-64
2022/08/02 10:03:06;;;;;;;;;15.67;14.67;;;;;49.89;11.63;101339.47;5001225;28;45457;-64
2022/08/02 10:05:52;;;;;;;;;5.67;4.67;;;;;50.02;11.04;101342.75;5001740;28;45326;-64
2022/08/02 10:08:19;;;;;;;;;5.00;5.00;;;;;49.63;11.82;101331.25;5001285;28;47405;-63
2022/08/02 10:10:45;;;;;;;;;5.33;5.33;;;;;48.47;12.59;101327.19;5019329;28;45726;-63
2022/08/02 10:13:14;;;;;;;;;5.00;4.00;;;;;46.95;13.38;101270.47;5019123;28;45262;-63
2022/08/02 10:15:39;;;;;;;;;6.00;6.00;;;;;46.00;14.69;101338.63;5019112;28;45462;-63
2022/08/02 10:18:06;;;;;;;;;4.33;4.33;;;;;44.66;15.38;101328.69;5018915;28;45770;-64
2022/08/02 10:20:43;;;;;;;;;11.00;8.00;;;;;43.13;16.26;101323.31;5001204;28;45505;-64
2022/08/02 10:23:12;;;;;;;;;6.67;6.67;;;;;41.64;18.06;101274.88;5019236;28;45234;-63
2022/08/02 10:25:38;;;;;;;;;6.00;3.67;;;;;41.10;18.62;101324.97;5019194;28;45642;-63
2022/08/02 10:28:06;;;;;;;;;5.33;5.33;;;;;40.28;19.43;101317.84;5018807;28;45899;-63
2022/08/02 10:30:35;;;;;;;;;8.00;6.67;;;;;39.43;20.22;101296.00;5018916;28;45396;-63
2022/08/02 10:33:02;;;;;;;;;6.00;5.00;;;;;38.74;20.98;101318.03;5018537;28;45468;-62
2022/08/02 10:35:32;;;;;;;;;4.00;4.00;;;;;38.20;21.52;101314.41;5019254;28;45277;-64
2022/08/02 10:38:06;;;;;;;;;5.33;5.33;;;;;37.46;22.33;101305.56;5018772;28;45628;-63
2022/08/02 10:40:47;;;;;;;;;7.00;5.00;;;;;36.73;22.84;101275.97;5018848;28;45486;-62
2022/08/02 10:43:34;;;;;;;;;4.67;4.67;;;;;36.41;23.57;101326.69;5016349;28;45588;-75
2022/08/02 10:46:34;;;;;;;;;6.33;5.00;;;;;36.11;24.44;101325.25;5008422;28;45571;-64
2022/08/02 10:48:59;;;;;;;;;5.33;4.33;;;;;35.77;24.61;101320.72;4993049;28;48519;-64
2022/08/02 10:51:50;;;;;;;;;5.00;5.00;;;;;35.37;25.68;101324.88;5003436;28;45585;-65
2022/08/02 10:54:20;;;;;;;;;5.00;5.00;;;;;35.00;25.87;101303.47;5011039;28;45426;-64
2022/08/02 10:56:51;;;;;;;;;6.00;4.67;;;;;34.79;25.79;101316.66;5000043;28;45306;-64
2022/08/02 10:59:24;;;;;;;;;5.33;5.33;;;;;34.59;26.50;101311.34;5018634;28;46605;-63
2022/08/02 11:01:49;;;;;;;;;3.67;2.00;;;;;34.37;26.07;101314.56;4999432;28;45620;-63
2022/08/02 11:04:15;;;;;;;;;3.33;3.00;;;;;33.77;25.77;101244.91;4998962;28;45413;-64
2022/08/02 11:07:20;;;;;;;;;4.00;4.00;;;;;33.89;26.26;101306.09;5004001;28;45655;-64
2022/08/02 11:09:48;;;;;;;;;3.33;2.67;;;;;33.42;25.58;101290.06;4940559;28;46503;-71
2022/08/02 11:12:16;;;;;;;;;4.00;4.00;;;;;33.32;26.80;101304.72;4945896;28;45989;-63
2022/08/02 11:14:44;;;;;;;;;7.33;7.33;;;;;33.25;27.58;101305.00;4959773;28;45629;-64
2022/08/02 11:17:17;;;;;;;;;4.00;4.00;;;;;33.09;28.45;101294.34;4967846;28;45613;-63
2022/08/02 11:20:07;;;;;;;;;4.00;4.00;;;;;32.87;28.82;101300.19;5013367;28;45752;-63
2022/08/02 11:22:33;;;;;;;;;4.67;4.67;;;;;32.51;29.02;101294.72;5010742;28;45542;-64
2022/08/02 11:25:21;;;;;;;;;7.33;7.33;;;;;32.41;29.52;101307.63;5012457;28;45374;-64
2022/08/02 11:27:51;;;;;;;;;11.00;10.00;;;;;32.05;29.65;101258.09;5013726;28;45687;-63
2022/08/02 11:30:18;;;;;;;;;4.00;4.00;;;;;32.07;29.46;101289.75;5012905;28;46401;-67
2022/08/02 11:32:43;;;;;;;;;3.00;3.00;;;;;31.99;29.30;101297.69;5009889;28;45444;-64
2022/08/02 11:35:09;;;;;;;;;6.00;6.00;;;;;31.55;29.96;101267.88;5009448;28;45625;-63